ADDS METAR Data INFO
IDs: Format: Raw Decoded Include TAF

Data at: 0250 UTC 21 Jan 2018

KTVK 210235Z AUTO 00000KT 10SM 06/06 A2991 RMK AO2
KTVK 210215Z AUTO 00000KT 10SM 06/06 A2992 RMK AO2
KTVK 210155Z AUTO 00000KT 10SM 07/06 A2991 RMK AO2
KTVK 210135Z AUTO 00000KT 10SM 07/06 A2992 RMK AO2
KTVK 210115Z AUTO 00000KT 10SM 07/06 A2993 RMK AO2
KTVK 210055Z AUTO 00000KT 10SM 06/06 A2992 RMK AO2
KTVK 210035Z AUTO 00000KT 10SM 07/06 A2992 RMK AO2
KTVK 210015Z AUTO 00000KT 10SM 07/06 A2991 RMK AO2
KTVK 202355Z AUTO 00000KT 10SM 07/07 A2991 RMK AO2
KTVK 202335Z AUTO 00000KT 10SM 07/06 A2990 RMK AO2
KTVK 202315Z AUTO 00000KT 10SM 07/06 A2990 RMK AO2
KTVK 202255Z AUTO 00000KT 10SM 08/06 A2990 RMK AO2
KTVK 202235Z AUTO 00000KT 10SM 08/07 A2989 RMK AO2
KTVK 202215Z AUTO 00000KT 10SM 08/07 A2989 RMK AO2
KTVK 202155Z AUTO 00000KT 10SM 08/07 A2989 RMK AO2
KTVK 202135Z AUTO 00000KT 10SM 09/07 A2989 RMK AO2
KTVK 202115Z AUTO 00000KT 10SM 09/07 A2989 RMK AO2
KTVK 202055Z AUTO 00000KT 10SM 09/07 A2988 RMK AO2
KTVK 202035Z AUTO 00000KT 10SM 09/07 A2988 RMK AO2
KTVK 202015Z AUTO 00000KT 10SM 09/07 A2987 RMK AO2
KTVK 201955Z AUTO 00000KT 10SM 09/07 A2988 RMK AO2
KTVK 201935Z AUTO 00000KT 10SM 09/07 A2989 RMK AO2
KTVK 201915Z AUTO 21007KT 10SM 09/07 A2989 RMK AO2
KTVK 201855Z AUTO 20003KT 10SM 09/06 A2989 RMK AO2
KTVK 201835Z AUTO 22007KT 10SM 09/06 A2990 RMK AO2
KTVK 201815Z AUTO 21006KT 10SM 09/06 A2991 RMK AO2
KTVK 201755Z AUTO 23008KT 10SM 09/06 A2992 RMK AO2
KTVK 201735Z AUTO 22010KT 10SM 08/06 A2992 RMK AO2
KTVK 201715Z AUTO 23010KT 10SM 07/05 A2993 RMK AO2
KTVK 201655Z AUTO 00000KT 10SM 07/05 A2994 RMK AO2
KTVK 201635Z AUTO 22009KT 10SM 07/05 A2994 RMK AO2
KTVK 201615Z AUTO 22010KT 10SM 06/05 A2994 RMK AO2
KTVK 201555Z AUTO 21011KT 10SM 05/05 A2993 RMK AO2
KTVK 201535Z AUTO 21010KT 10SM 05/05 A2992 RMK AO2
KTVK 201515Z AUTO 20011KT 10SM 05/05 A2991 RMK AO2
KTVK 201455Z AUTO 20011KT 10SM 04/04 A2990 RMK AO2
KTVK 201435Z AUTO 19011KT 10SM 04/04 A2989 RMK AO2
KTVK 201415Z AUTO 20011KT 10SM 04/03 A2989 RMK AO2
KTVK 201355Z AUTO 20011KT 10SM 03/03 A2989 RMK AO2
KTVK 201335Z AUTO 20009KT 10SM 02/02 A2989 RMK AO2
KTVK 201315Z AUTO 19007KT 10SM 00/00 A2988 RMK AO2
KTVK 201255Z AUTO 19003KT 10SM 00/00 A2987 RMK AO2
KTVK 201235Z AUTO 00000KT 10SM 00/00 A2987 RMK AO2
KTVK 201215Z AUTO 00000KT 10SM 00/00 A2988 RMK AO2
KTVK 201155Z AUTO 19006KT 10SM 00/00 A2987 RMK AO2
KTVK 201135Z AUTO 19004KT 10SM 00/00 A2986 RMK AO2
KTVK 201115Z AUTO 20006KT 10SM 00/00 A2986 RMK AO2
KTVK 201055Z AUTO 18008KT 10SM 00/00 A2985 RMK AO2
KTVK 201035Z AUTO 18008KT 10SM 00/00 A2985 RMK AO2
KTVK 201015Z AUTO 19007KT 10SM 00/00 A2986 RMK AO2
KTVK 200955Z AUTO 19007KT 10SM 00/M01 A2986 RMK AO2
KTVK 200935Z AUTO 19006KT 10SM 00/M01 A2986 RMK AO2
KTVK 200915Z AUTO 19005KT 10SM 00/M02 A2986 RMK AO2
KTVK 200855Z AUTO 00000KT 10SM 01/M02 A2985 RMK AO2
KTVK 200835Z AUTO 19008KT 10SM 00/M02 A2985 RMK AO2
KTVK 200815Z AUTO 19007KT 10SM 01/M02 A2984 RMK AO2
KTVK 200755Z AUTO 19004KT 10SM 02/M02 A2984 RMK AO2
KTVK 200735Z AUTO 20004KT 10SM 01/M02 A2984 RMK AO2
KTVK 200715Z AUTO 00000KT 10SM 01/M02 A2983 RMK AO2
KTVK 200655Z AUTO 00000KT 10SM 02/M02 A2983 RMK AO2
KTVK 200635Z AUTO 00000KT 10SM 02/M02 A2983 RMK AO2
KTVK 200615Z AUTO 20005KT 10SM 03/M02 A2983 RMK AO2
KTVK 200555Z AUTO 00000KT 10SM 03/M02 A2983 RMK AO2
KTVK 200535Z AUTO 19008KT 10SM 03/M02 A2982 RMK AO2
KTVK 200515Z AUTO 19010KT 10SM 03/M02 A2981 RMK AO2
KTVK 200455Z AUTO 20008KT 10SM 03/M02 A2982 RMK AO2
KTVK 200435Z AUTO 19010KT 10SM 03/M02 A2981 RMK AO2
KTVK 200415Z AUTO 19009KT 10SM 03/M02 A2981 RMK AO2
KTVK 200355Z AUTO 19009KT 10SM 03/M02 A2981 RMK AO2
KTVK 200335Z AUTO 19010KT 10SM 04/M02 A2981 RMK AO2
KTVK 200315Z AUTO 19011KT 10SM 04/M02 A2980 RMK AO2
KTVK 200255Z AUTO 20010KT 10SM 04/M02 A2980 RMK AO2
KTVK 200235Z AUTO 19015G21KT 10SM 05/M02 A2978 RMK AO2
KTVK 200215Z AUTO 20013KT 10SM 05/M02 A2979 RMK AO2
KTVK 200155Z AUTO 20013KT 10SM 05/M02 A2978 RMK AO2
KTVK 200135Z AUTO 19013G17KT 10SM 05/M02 A2977 RMK AO2
KTVK 200115Z AUTO 18013KT 10SM 05/M02 A2977 RMK AO2
KTVK 200055Z AUTO 18015G20KT 10SM 05/M02 A2976 RMK AO2
KTVK 200035Z AUTO 18015G20KT 10SM 05/M02 A2975 RMK AO2
KTVK 200015Z AUTO 18014KT 10SM 05/M02 A2975 RMK AO2
KTVK 192355Z AUTO 18014KT 10SM 05/M02 A2975 RMK AO2
KTVK 192335Z AUTO 18012KT 10SM 05/M03 A2975 RMK AO2
KTVK 192315Z AUTO 18012G17KT 10SM 05/M02 A2975 RMK AO2
KTVK 192255Z AUTO 18015KT 10SM 05/M03 A2974 RMK AO2
KTVK 192235Z AUTO 17012KT 10SM 06/M03 A2974 RMK AO2
KTVK 192215Z AUTO 18012KT 10SM 06/M03 A2975 RMK AO2
KTVK 192155Z AUTO 18013G19KT 10SM 07/M03 A2975 RMK AO2
KTVK 192135Z AUTO 18015KT 10SM 07/M03 A2975 RMK AO2
KTVK 192115Z AUTO 18013G20KT 10SM 07/M03 A2975 RMK AO2
KTVK 192055Z AUTO 18016G21KT 10SM 07/M03 A2975 RMK AO2
KTVK 192035Z AUTO 17018G21KT 10SM 07/M03 A2975 RMK AO2
KTVK 192015Z AUTO 18015KT 10SM 08/M03 A2975 RMK AO2
KTVK 191955Z AUTO 18013KT 10SM 07/M03 A2976 RMK AO2
KTVK 191935Z AUTO 18012KT 10SM 08/M03 A2977 RMK AO2
KTVK 191915Z AUTO 17016G19KT 10SM 07/M04 A2976 RMK AO2
KTVK 191855Z AUTO 17017G20KT 10SM 07/M03 A2977 RMK AO2
KTVK 191835Z AUTO 18015KT 10SM 07/M04 A2978 RMK AO2
KTVK 191815Z AUTO 17016G20KT 10SM 05/M04 A2980 RMK AO2
KTVK 191755Z AUTO 17013G20KT 10SM 05/M04 A2981 RMK AO2
KTVK 191735Z AUTO 18016G19KT 10SM 05/M04 A2983 RMK AO2
KTVK 191715Z AUTO 18016KT 10SM 05/M05 A2984 RMK AO2
KTVK 191655Z AUTO 18018KT 10SM 04/M05 A2985 RMK AO2
KTVK 191635Z AUTO 19013KT 10SM 04/M05 A2987 RMK AO2
KTVK 191615Z AUTO 19015G19KT 10SM 03/M05 A2987 RMK AO2
KTVK 191555Z AUTO 19014G20KT 10SM 03/M05 A2988 RMK AO2
KTVK 191535Z AUTO 19015KT 10SM 02/M05 A2988 RMK AO2
KTVK 191515Z AUTO 18014KT 10SM 02/M06 A2988 RMK AO2
KTVK 191455Z AUTO 18015G21KT 10SM 01/M06 A2987 RMK AO2